sensor_id;sensor_type;location;lat;lon;timestamp;P1;durP1;ratioP1;P2;durP2;ratioP2
53873;SDS011;62246;50.938;4.058;2022-12-13T00:01:17;60.17;;;28.60;;
53873;SDS011;62246;50.938;4.058;2022-12-13T00:03:43;57.63;;;28.20;;
53873;SDS011;62246;50.938;4.058;2022-12-13T00:06:10;60.72;;;29.13;;
53873;SDS011;62246;50.938;4.058;2022-12-13T00:08:37;58.63;;;28.85;;
53873;SDS011;62246;50.938;4.058;2022-12-13T00:11:04;58.30;;;26.73;;
53873;SDS011;62246;50.938;4.058;2022-12-13T00:13:31;59.92;;;27.48;;
53873;SDS011;62246;50.938;4.058;2022-12-13T00:15:57;62.58;;;26.52;;
53873;SDS011;62246;50.938;4.058;2022-12-13T00:18:24;55.28;;;27.20;;
53873;SDS011;62246;50.938;4.058;2022-12-13T00:20:50;59.25;;;27.83;;
53873;SDS011;62246;50.938;4.058;2022-12-13T00:23:15;56.58;;;26.77;;
53873;SDS011;62246;50.938;4.058;2022-12-13T00:25:41;60.42;;;27.15;;
53873;SDS011;62246;50.938;4.058;2022-12-13T00:28:06;59.13;;;25.80;;
53873;SDS011;62246;50.938;4.058;2022-12-13T00:30:32;60.03;;;27.50;;
53873;SDS011;62246;50.938;4.058;2022-12-13T00:32:58;64.88;;;27.35;;
53873;SDS011;62246;50.938;4.058;2022-12-13T00:35:23;64.60;;;28.67;;
53873;SDS011;62246;50.938;4.058;2022-12-13T00:37:49;61.70;;;28.10;;
53873;SDS011;62246;50.938;4.058;2022-12-13T00:40:14;63.67;;;27.15;;
53873;SDS011;62246;50.938;4.058;2022-12-13T00:42:40;56.75;;;25.67;;
53873;SDS011;62246;50.938;4.058;2022-12-13T00:45:06;57.60;;;25.92;;
53873;SDS011;62246;50.938;4.058;2022-12-13T00:47:31;57.13;;;25.10;;
53873;SDS011;62246;50.938;4.058;2022-12-13T00:49:57;53.63;;;24.40;;
53873;SDS011;62246;50.938;4.058;2022-12-13T00:52:23;55.47;;;24.88;;
53873;SDS011;62246;50.938;4.058;2022-12-13T00:54:48;57.78;;;25.80;;
53873;SDS011;62246;50.938;4.058;2022-12-13T00:57:13;61.33;;;27.67;;
53873;SDS011;62246;50.938;4.058;2022-12-13T00:59:39;58.17;;;26.50;;
53873;SDS011;62246;50.938;4.058;2022-12-13T01:02:04;58.40;;;25.73;;
53873;SDS011;62246;50.938;4.058;2022-12-13T01:04:30;56.53;;;25.77;;
53873;SDS011;62246;50.938;4.058;2022-12-13T01:06:55;51.40;;;25.35;;
53873;SDS011;62246;50.938;4.058;2022-12-13T01:09:22;56.88;;;24.67;;
53873;SDS011;62246;50.938;4.058;2022-12-13T01:12:00;57.03;;;25.85;;
53873;SDS011;62246;50.938;4.058;2022-12-13T01:14:28;56.83;;;24.17;;
53873;SDS011;62246;50.938;4.058;2022-12-13T01:16:54;54.13;;;23.75;;
53873;SDS011;62246;50.938;4.058;2022-12-13T01:19:23;49.35;;;21.50;;
53873;SDS011;62246;50.938;4.058;2022-12-13T01:21:53;50.13;;;22.55;;
53873;SDS011;62246;50.938;4.058;2022-12-13T01:24:19;48.78;;;22.17;;
53873;SDS011;62246;50.938;4.058;2022-12-13T01:26:46;54.35;;;23.08;;
53873;SDS011;62246;50.938;4.058;2022-12-13T01:29:12;54.63;;;23.70;;
53873;SDS011;62246;50.938;4.058;2022-12-13T01:31:38;51.45;;;22.38;;
53873;SDS011;62246;50.938;4.058;2022-12-13T01:34:06;53.28;;;22.95;;
53873;SDS011;62246;50.938;4.058;2022-12-13T01:36:34;48.10;;;22.25;;
53873;SDS011;62246;50.938;4.058;2022-12-13T01:39:00;50.15;;;23.63;;
53873;SDS011;62246;50.938;4.058;2022-12-13T01:41:26;50.05;;;22.25;;
53873;SDS011;62246;50.938;4.058;2022-12-13T01:43:53;50.88;;;22.55;;
53873;SDS011;62246;50.938;4.058;2022-12-13T01:46:20;44.17;;;21.45;;
53873;SDS011;62246;50.938;4.058;2022-12-13T01:48:48;46.95;;;22.10;;
53873;SDS011;62246;50.938;4.058;2022-12-13T01:51:21;53.20;;;23.15;;
53873;SDS011;62246;50.938;4.058;2022-12-13T01:53:51;46.78;;;22.58;;
53873;SDS011;62246;50.938;4.058;2022-12-13T01:56:20;46.88;;;21.85;;
53873;SDS011;62246;50.938;4.058;2022-12-13T01:58:51;46.42;;;21.75;;
53873;SDS011;62246;50.938;4.058;2022-12-13T02:01:19;52.45;;;23.05;;
53873;SDS011;62246;50.938;4.058;2022-12-13T02:03:46;48.00;;;22.60;;
53873;SDS011;62246;50.938;4.058;2022-12-13T02:06:13;48.75;;;21.40;;
53873;SDS011;62246;50.938;4.058;2022-12-13T02:08:43;46.80;;;21.50;;
53873;SDS011;62246;50.938;4.058;2022-12-13T02:11:10;50.35;;;21.60;;
53873;SDS011;62246;50.938;4.058;2022-12-13T02:13:37;50.67;;;22.58;;
53873;SDS011;62246;50.938;4.058;2022-12-13T02:21:44;51.80;;;24.63;;
53873;SDS011;62246;50.938;4.058;2022-12-13T02:36:24;50.45;;;22.17;;
53873;SDS011;62246;50.938;4.058;2022-12-13T02:43:31;54.40;;;21.60;;
53873;SDS011;62246;50.938;4.058;2022-12-13T02:46:03;46.88;;;21.50;;
53873;SDS011;62246;50.938;4.058;2022-12-13T02:48:34;49.85;;;21.83;;
53873;SDS011;62246;50.938;4.058;2022-12-13T02:51:02;49.05;;;22.13;;
53873;SDS011;62246;50.938;4.058;2022-12-13T02:53:29;50.38;;;23.40;;
53873;SDS011;62246;50.938;4.058;2022-12-13T02:55:56;52.72;;;23.48;;
53873;SDS011;62246;50.938;4.058;2022-12-13T02:58:22;49.53;;;22.15;;
53873;SDS011;62246;50.938;4.058;2022-12-13T03:04:19;46.75;;;21.30;;
53873;SDS011;62246;50.938;4.058;2022-12-13T03:07:04;50.42;;;22.48;;
53873;SDS011;62246;50.938;4.058;2022-12-13T03:15:32;45.80;;;21.35;;
53873;SDS011;62246;50.938;4.058;2022-12-13T03:18:01;45.80;;;20.85;;
53873;SDS011;62246;50.938;4.058;2022-12-13T03:20:39;45.15;;;20.58;;
53873;SDS011;62246;50.938;4.058;2022-12-13T03:23:09;47.58;;;22.60;;
53873;SDS011;62246;50.938;4.058;2022-12-13T03:25:35;49.15;;;23.58;;
53873;SDS011;62246;50.938;4.058;2022-12-13T03:28:01;44.10;;;22.40;;
53873;SDS011;62246;50.938;4.058;2022-12-13T03:30:26;50.35;;;24.08;;
53873;SDS011;62246;50.938;4.058;2022-12-13T03:32:52;48.30;;;22.13;;
53873;SDS011;62246;50.938;4.058;2022-12-13T03:35:17;44.80;;;21.77;;
53873;SDS011;62246;50.938;4.058;2022-12-13T03:37:43;40.95;;;19.60;;
53873;SDS011;62246;50.938;4.058;2022-12-13T03:40:09;43.65;;;21.38;;
53873;SDS011;62246;50.938;4.058;2022-12-13T03:42:35;49.78;;;22.83;;
53873;SDS011;62246;50.938;4.058;2022-12-13T03:45:01;47.53;;;22.27;;
53873;SDS011;62246;50.938;4.058;2022-12-13T03:47:26;53.00;;;22.08;;
53873;SDS011;62246;50.938;4.058;2022-12-13T03:49:51;49.47;;;22.30;;
53873;SDS011;62246;50.938;4.058;2022-12-13T03:52:17;45.22;;;21.33;;
53873;SDS011;62246;50.938;4.058;2022-12-13T03:54:43;45.55;;;20.25;;
53873;SDS011;62246;50.938;4.058;2022-12-13T03:57:08;48.78;;;22.58;;
53873;SDS011;62246;50.938;4.058;2022-12-13T03:59:33;49.08;;;22.92;;
53873;SDS011;62246;50.938;4.058;2022-12-13T04:01:59;46.25;;;20.98;;
53873;SDS011;62246;50.938;4.058;2022-12-13T04:04:24;44.53;;;20.58;;
53873;SDS011;62246;50.938;4.058;2022-12-13T04:06:50;45.08;;;19.63;;
53873;SDS011;62246;50.938;4.058;2022-12-13T04:09:15;45.53;;;20.98;;
53873;SDS011;62246;50.938;4.058;2022-12-13T04:11:41;45.30;;;20.92;;
53873;SDS011;62246;50.938;4.058;2022-12-13T04:14:25;43.55;;;22.05;;
53873;SDS011;62246;50.938;4.058;2022-12-13T04:16:50;46.47;;;20.95;;
53873;SDS011;62246;50.938;4.058;2022-12-13T04:19:16;48.97;;;21.58;;
53873;SDS011;62246;50.938;4.058;2022-12-13T04:21:41;45.83;;;20.98;;
53873;SDS011;62246;50.938;4.058;2022-12-13T04:24:07;48.20;;;22.17;;
53873;SDS011;62246;50.938;4.058;2022-12-13T04:26:33;45.88;;;21.23;;
53873;SDS011;62246;50.938;4.058;2022-12-13T04:28:58;45.92;;;21.35;;
53873;SDS011;62246;50.938;4.058;2022-12-13T04:31:23;45.15;;;20.88;;
53873;SDS011;62246;50.938;4.058;2022-12-13T04:33:49;43.42;;;20.00;;
53873;SDS011;62246;50.938;4.058;2022-12-13T04:36:15;45.88;;;21.85;;
53873;SDS011;62246;50.938;4.058;2022-12-13T04:38:44;42.33;;;20.20;;
53873;SDS011;62246;50.938;4.058;2022-12-13T04:41:17;38.17;;;18.45;;
53873;SDS011;62246;50.938;4.058;2022-12-13T04:43:43;41.20;;;19.42;;
53873;SDS011;62246;50.938;4.058;2022-12-13T04:46:09;41.63;;;20.35;;
53873;SDS011;62246;50.938;4.058;2022-12-13T04:48:35;46.90;;;21.20;;
53873;SDS011;62246;50.938;4.058;2022-12-13T04:51:00;44.05;;;20.92;;
53873;SDS011;62246;50.938;4.058;2022-12-13T04:53:26;40.03;;;21.23;;
53873;SDS011;62246;50.938;4.058;2022-12-13T04:55:54;42.78;;;20.55;;
53873;SDS011;62246;50.938;4.058;2022-12-13T04:58:20;38.13;;;19.30;;
53873;SDS011;62246;50.938;4.058;2022-12-13T05:00:45;42.35;;;19.52;;
53873;SDS011;62246;50.938;4.058;2022-12-13T05:03:11;44.67;;;21.10;;
53873;SDS011;62246;50.938;4.058;2022-12-13T05:05:37;43.60;;;20.80;;
53873;SDS011;62246;50.938;4.058;2022-12-13T05:08:06;46.08;;;22.80;;
53873;SDS011;62246;50.938;4.058;2022-12-13T05:10:32;45.33;;;21.73;;
53873;SDS011;62246;50.938;4.058;2022-12-13T05:12:57;40.92;;;20.05;;
53873;SDS011;62246;50.938;4.058;2022-12-13T05:15:23;47.13;;;21.73;;
53873;SDS011;62246;50.938;4.058;2022-12-13T05:17:49;50.00;;;22.90;;
53873;SDS011;62246;50.938;4.058;2022-12-13T05:20:14;41.72;;;20.67;;
53873;SDS011;62246;50.938;4.058;2022-12-13T05:22:40;47.78;;;21.88;;
53873;SDS011;62246;50.938;4.058;2022-12-13T05:25:06;49.28;;;23.50;;
53873;SDS011;62246;50.938;4.058;2022-12-13T05:27:31;46.15;;;22.92;;
53873;SDS011;62246;50.938;4.058;2022-12-13T05:29:57;45.95;;;23.02;;
53873;SDS011;62246;50.938;4.058;2022-12-13T05:32:23;45.55;;;22.15;;
53873;SDS011;62246;50.938;4.058;2022-12-13T05:34:49;40.88;;;21.52;;
53873;SDS011;62246;50.938;4.058;2022-12-13T05:37:14;41.65;;;21.45;;
53873;SDS011;62246;50.938;4.058;2022-12-13T05:39:40;49.17;;;22.75;;
53873;SDS011;62246;50.938;4.058;2022-12-13T05:42:05;47.78;;;23.00;;
53873;SDS011;62246;50.938;4.058;2022-12-13T05:44:31;41.45;;;20.02;;
53873;SDS011;62246;50.938;4.058;2022-12-13T05:46:57;46.05;;;21.27;;
53873;SDS011;62246;50.938;4.058;2022-12-13T05:49:23;47.83;;;21.85;;
53873;SDS011;62246;50.938;4.058;2022-12-13T05:51:48;43.75;;;20.27;;
53873;SDS011;62246;50.938;4.058;2022-12-13T05:54:14;43.33;;;21.60;;
53873;SDS011;62246;50.938;4.058;2022-12-13T05:56:40;46.78;;;22.17;;
53873;SDS011;62246;50.938;4.058;2022-12-13T05:59:05;46.33;;;22.02;;
53873;SDS011;62246;50.938;4.058;2022-12-13T06:01:30;45.15;;;23.23;;
53873;SDS011;62246;50.938;4.058;2022-12-13T06:03:56;38.63;;;20.65;;
53873;SDS011;62246;50.938;4.058;2022-12-13T06:06:21;41.22;;;20.50;;
53873;SDS011;62246;50.938;4.058;2022-12-13T06:08:47;46.55;;;21.65;;
53873;SDS011;62246;50.938;4.058;2022-12-13T06:11:12;46.92;;;20.80;;
53873;SDS011;62246;50.938;4.058;2022-12-13T06:13:42;42.25;;;19.98;;
53873;SDS011;62246;50.938;4.058;2022-12-13T06:16:09;45.83;;;20.88;;
53873;SDS011;62246;50.938;4.058;2022-12-13T06:18:37;44.95;;;21.15;;
53873;SDS011;62246;50.938;4.058;2022-12-13T06:21:04;42.60;;;21.00;;
53873;SDS011;62246;50.938;4.058;2022-12-13T06:23:31;38.88;;;19.42;;
53873;SDS011;62246;50.938;4.058;2022-12-13T06:25:58;42.47;;;21.15;;
53873;SDS011;62246;50.938;4.058;2022-12-13T06:28:27;42.22;;;20.52;;
53873;SDS011;62246;50.938;4.058;2022-12-13T06:30:52;48.50;;;21.50;;
53873;SDS011;62246;50.938;4.058;2022-12-13T06:33:18;43.13;;;21.60;;
53873;SDS011;62246;50.938;4.058;2022-12-13T06:35:44;42.92;;;20.67;;
53873;SDS011;62246;50.938;4.058;2022-12-13T06:38:10;43.42;;;22.67;;
53873;SDS011;62246;50.938;4.058;2022-12-13T06:40:37;44.50;;;21.80;;
53873;SDS011;62246;50.938;4.058;2022-12-13T06:43:03;38.22;;;20.23;;
53873;SDS011;62246;50.938;4.058;2022-12-13T06:45:29;42.05;;;19.52;;
53873;SDS011;62246;50.938;4.058;2022-12-13T06:47:55;46.17;;;22.02;;
53873;SDS011;62246;50.938;4.058;2022-12-13T06:50:21;39.33;;;20.30;;
53873;SDS011;62246;50.938;4.058;2022-12-13T06:52:47;46.45;;;21.75;;
53873;SDS011;62246;50.938;4.058;2022-12-13T06:55:12;50.38;;;23.38;;
53873;SDS011;62246;50.938;4.058;2022-12-13T06:57:38;50.20;;;25.25;;
53873;SDS011;62246;50.938;4.058;2022-12-13T07:00:03;53.60;;;25.38;;
53873;SDS011;62246;50.938;4.058;2022-12-13T07:02:29;47.05;;;23.77;;
53873;SDS011;62246;50.938;4.058;2022-12-13T07:04:56;50.08;;;25.15;;
53873;SDS011;62246;50.938;4.058;2022-12-13T07:07:22;42.85;;;23.23;;
53873;SDS011;62246;50.938;4.058;2022-12-13T07:09:48;51.78;;;24.33;;
53873;SDS011;62246;50.938;4.058;2022-12-13T07:12:14;50.63;;;25.80;;
53873;SDS011;62246;50.938;4.058;2022-12-13T07:14:39;51.35;;;27.13;;
53873;SDS011;62246;50.938;4.058;2022-12-13T07:17:08;60.03;;;27.83;;
53873;SDS011;62246;50.938;4.058;2022-12-13T07:19:35;53.75;;;26.15;;
53873;SDS011;62246;50.938;4.058;2022-12-13T07:22:00;51.47;;;26.55;;
53873;SDS011;62246;50.938;4.058;2022-12-13T07:24:25;57.67;;;28.08;;
53873;SDS011;62246;50.938;4.058;2022-12-13T07:26:51;55.95;;;29.05;;
53873;SDS011;62246;50.938;4.058;2022-12-13T07:29:17;57.45;;;28.15;;
53873;SDS011;62246;50.938;4.058;2022-12-13T07:31:42;53.67;;;27.77;;
53873;SDS011;62246;50.938;4.058;2022-12-13T07:34:08;50.42;;;25.90;;
53873;SDS011;62246;50.938;4.058;2022-12-13T07:36:33;54.17;;;28.13;;
53873;SDS011;62246;50.938;4.058;2022-12-13T07:38:58;58.35;;;28.88;;
53873;SDS011;62246;50.938;4.058;2022-12-13T07:41:24;55.78;;;26.50;;
53873;SDS011;62246;50.938;4.058;2022-12-13T07:43:51;50.85;;;27.27;;
53873;SDS011;62246;50.938;4.058;2022-12-13T07:46:17;56.90;;;27.27;;
53873;SDS011;62246;50.938;4.058;2022-12-13T07:48:43;56.78;;;26.52;;
53873;SDS011;62246;50.938;4.058;2022-12-13T07:51:09;49.58;;;26.48;;
53873;SDS011;62246;50.938;4.058;2022-12-13T07:53:38;58.13;;;27.75;;
53873;SDS011;62246;50.938;4.058;2022-12-13T07:56:04;53.75;;;25.85;;
53873;SDS011;62246;50.938;4.058;2022-12-13T07:58:31;57.80;;;27.35;;
53873;SDS011;62246;50.938;4.058;2022-12-13T08:01:04;52.50;;;25.88;;
53873;SDS011;62246;50.938;4.058;2022-12-13T08:03:36;46.53;;;24.75;;
53873;SDS011;62246;50.938;4.058;2022-12-13T08:06:02;48.50;;;26.10;;
53873;SDS011;62246;50.938;4.058;2022-12-13T08:08:32;51.25;;;26.38;;
53873;SDS011;62246;50.938;4.058;2022-12-13T08:11:02;47.47;;;25.58;;
53873;SDS011;62246;50.938;4.058;2022-12-13T08:13:29;44.05;;;23.88;;
53873;SDS011;62246;50.938;4.058;2022-12-13T08:16:01;54.63;;;24.92;;
53873;SDS011;62246;50.938;4.058;2022-12-13T08:18:28;45.67;;;24.42;;
53873;SDS011;62246;50.938;4.058;2022-12-13T08:21:00;48.30;;;24.20;;
53873;SDS011;62246;50.938;4.058;2022-12-13T08:23:26;47.47;;;24.00;;
53873;SDS011;62246;50.938;4.058;2022-12-13T08:25:55;47.20;;;22.80;;
53873;SDS011;62246;50.938;4.058;2022-12-13T08:28:21;47.97;;;23.02;;
53873;SDS011;62246;50.938;4.058;2022-12-13T08:30:47;48.25;;;24.25;;
53873;SDS011;62246;50.938;4.058;2022-12-13T08:33:13;50.20;;;23.50;;
53873;SDS011;62246;50.938;4.058;2022-12-13T08:35:39;48.95;;;24.05;;
53873;SDS011;62246;50.938;4.058;2022-12-13T08:38:04;46.97;;;22.95;;
53873;SDS011;62246;50.938;4.058;2022-12-13T08:40:30;53.47;;;25.92;;
53873;SDS011;62246;50.938;4.058;2022-12-13T08:42:56;54.30;;;23.35;;
53873;SDS011;62246;50.938;4.058;2022-12-13T08:45:22;50.55;;;23.33;;
53873;SDS011;62246;50.938;4.058;2022-12-13T08:47:51;45.63;;;21.58;;
53873;SDS011;62246;50.938;4.058;2022-12-13T08:50:17;45.80;;;20.80;;
53873;SDS011;62246;50.938;4.058;2022-12-13T08:52:42;44.40;;;19.83;;
53873;SDS011;62246;50.938;4.058;2022-12-13T08:55:13;45.45;;;19.02;;
53873;SDS011;62246;50.938;4.058;2022-12-13T08:57:40;42.92;;;19.17;;
53873;SDS011;62246;50.938;4.058;2022-12-13T09:00:07;36.30;;;17.48;;
53873;SDS011;62246;50.938;4.058;2022-12-13T09:02:35;39.67;;;17.05;;
53873;SDS011;62246;50.938;4.058;2022-12-13T09:05:01;40.63;;;17.42;;
53873;SDS011;62246;50.938;4.058;2022-12-13T09:07:27;35.58;;;15.77;;
53873;SDS011;62246;50.938;4.058;2022-12-13T09:09:53;42.85;;;17.23;;
53873;SDS011;62246;50.938;4.058;2022-12-13T09:12:18;33.35;;;15.05;;
53873;SDS011;62246;50.938;4.058;2022-12-13T09:14:45;35.85;;;16.40;;
53873;SDS011;62246;50.938;4.058;2022-12-13T09:17:11;35.33;;;16.23;;
53873;SDS011;62246;50.938;4.058;2022-12-13T09:19:39;33.47;;;15.88;;
53873;SDS011;62246;50.938;4.058;2022-12-13T09:22:05;41.50;;;17.58;;
53873;SDS011;62246;50.938;4.058;2022-12-13T09:24:30;35.72;;;15.90;;
53873;SDS011;62246;50.938;4.058;2022-12-13T09:26:56;35.15;;;16.30;;
53873;SDS011;62246;50.938;4.058;2022-12-13T09:29:21;37.03;;;15.77;;
53873;SDS011;62246;50.938;4.058;2022-12-13T09:31:47;33.95;;;16.33;;
53873;SDS011;62246;50.938;4.058;2022-12-13T09:34:12;33.75;;;16.45;;
53873;SDS011;62246;50.938;4.058;2022-12-13T09:36:38;33.13;;;15.45;;
53873;SDS011;62246;50.938;4.058;2022-12-13T09:39:03;35.75;;;16.25;;
53873;SDS011;62246;50.938;4.058;2022-12-13T09:41:48;38.10;;;15.75;;
53873;SDS011;62246;50.938;4.058;2022-12-13T09:44:20;34.75;;;15.88;;
53873;SDS011;62246;50.938;4.058;2022-12-13T09:46:48;32.90;;;15.18;;
53873;SDS011;62246;50.938;4.058;2022-12-13T09:49:37;36.30;;;14.55;;
53873;SDS011;62246;50.938;4.058;2022-12-13T09:52:09;30.35;;;14.30;;
53873;SDS011;62246;50.938;4.058;2022-12-13T09:54:39;33.38;;;14.30;;
53873;SDS011;62246;50.938;4.058;2022-12-13T09:57:13;31.38;;;14.85;;
53873;SDS011;62246;50.938;4.058;2022-12-13T09:59:44;31.13;;;15.02;;
53873;SDS011;62246;50.938;4.058;2022-12-13T10:02:13;33.50;;;15.40;;
53873;SDS011;62246;50.938;4.058;2022-12-13T10:04:47;32.35;;;14.43;;
53873;SDS011;62246;50.938;4.058;2022-12-13T10:07:17;31.23;;;15.25;;
53873;SDS011;62246;50.938;4.058;2022-12-13T10:09:45;29.75;;;14.10;;
53873;SDS011;62246;50.938;4.058;2022-12-13T10:12:12;30.33;;;15.13;;
53873;SDS011;62246;50.938;4.058;2022-12-13T10:14:48;28.77;;;14.32;;
53873;SDS011;62246;50.938;4.058;2022-12-13T10:17:19;34.08;;;13.52;;
53873;SDS011;62246;50.938;4.058;2022-12-13T10:19:49;29.00;;;14.18;;
53873;SDS011;62246;50.938;4.058;2022-12-13T10:22:16;31.38;;;14.73;;
53873;SDS011;62246;50.938;4.058;2022-12-13T10:24:54;32.42;;;14.95;;
53873;SDS011;62246;50.938;4.058;2022-12-13T10:32:56;28.33;;;13.77;;
53873;SDS011;62246;50.938;4.058;2022-12-13T10:38:01;28.13;;;14.20;;
53873;SDS011;62246;50.938;4.058;2022-12-13T10:40:44;30.48;;;14.40;;
53873;SDS011;62246;50.938;4.058;2022-12-13T10:49:11;29.67;;;13.70;;
53873;SDS011;62246;50.938;4.058;2022-12-13T10:51:13;24.73;;;13.10;;
53873;SDS011;62246;50.938;4.058;2022-12-13T10:53:45;27.13;;;12.95;;
53873;SDS011;62246;50.938;4.058;2022-12-13T10:56:11;27.20;;;13.82;;
53873;SDS011;62246;50.938;4.058;2022-12-13T10:58:41;26.50;;;14.32;;
53873;SDS011;62246;50.938;4.058;2022-12-13T11:01:29;25.52;;;13.60;;
53873;SDS011;62246;50.938;4.058;2022-12-13T11:04:04;27.63;;;14.32;;
53873;SDS011;62246;50.938;4.058;2022-12-13T11:06:45;28.02;;;13.63;;
53873;SDS011;62246;50.938;4.058;2022-12-13T11:09:15;28.17;;;14.18;;
53873;SDS011;62246;50.938;4.058;2022-12-13T11:11:51;24.48;;;13.10;;
53873;SDS011;62246;50.938;4.058;2022-12-13T11:14:19;27.77;;;14.13;;
53873;SDS011;62246;50.938;4.058;2022-12-13T11:16:56;27.83;;;13.38;;
53873;SDS011;62246;50.938;4.058;2022-12-13T11:19:30;25.63;;;14.02;;
53873;SDS011;62246;50.938;4.058;2022-12-13T11:22:23;26.98;;;13.60;;
53873;SDS011;62246;50.938;4.058;2022-12-13T11:24:55;27.30;;;14.20;;
53873;SDS011;62246;50.938;4.058;2022-12-13T11:30:12;22.73;;;12.43;;
53873;SDS011;62246;50.938;4.058;2022-12-13T11:38:56;25.50;;;14.32;;
53873;SDS011;62246;50.938;4.058;2022-12-13T11:41:33;25.77;;;14.30;;
53873;SDS011;62246;50.938;4.058;2022-12-13T11:44:05;26.35;;;14.18;;
53873;SDS011;62246;50.938;4.058;2022-12-13T11:46:41;24.50;;;13.40;;
53873;SDS011;62246;50.938;4.058;2022-12-13T11:49:16;29.02;;;14.77;;
53873;SDS011;62246;50.938;4.058;2022-12-13T11:51:47;25.98;;;14.13;;
53873;SDS011;62246;50.938;4.058;2022-12-13T11:54:43;24.10;;;13.38;;
53873;SDS011;62246;50.938;4.058;2022-12-13T11:57:30;28.83;;;14.90;;
53873;SDS011;62246;50.938;4.058;2022-12-13T12:00:05;29.85;;;14.05;;
53873;SDS011;62246;50.938;4.058;2022-12-13T12:02:38;29.15;;;14.30;;
53873;SDS011;62246;50.938;4.058;2022-12-13T12:05:52;27.50;;;13.63;;
53873;SDS011;62246;50.938;4.058;2022-12-13T12:08:15;23.95;;;14.15;;
53873;SDS011;62246;50.938;4.058;2022-12-13T12:10:46;28.73;;;14.63;;
53873;SDS011;62246;50.938;4.058;2022-12-13T12:13:20;31.73;;;14.82;;
53873;SDS011;62246;50.938;4.058;2022-12-13T12:16:00;28.20;;;13.65;;
53873;SDS011;62246;50.938;4.058;2022-12-13T12:18:32;28.38;;;13.93;;
53873;SDS011;62246;50.938;4.058;2022-12-13T12:26:26;25.42;;;13.80;;
53873;SDS011;62246;50.938;4.058;2022-12-13T12:32:03;24.87;;;13.63;;
53873;SDS011;62246;50.938;4.058;2022-12-13T12:38:04;26.75;;;13.52;;
53873;SDS011;62246;50.938;4.058;2022-12-13T12:43:01;27.45;;;13.82;;
53873;SDS011;62246;50.938;4.058;2022-12-13T12:45:44;24.58;;;12.70;;
53873;SDS011;62246;50.938;4.058;2022-12-13T12:54:09;27.02;;;13.10;;
53873;SDS011;62246;50.938;4.058;2022-12-13T12:57:03;24.00;;;13.00;;
53873;SDS011;62246;50.938;4.058;2022-12-13T13:02:17;26.02;;;13.50;;
53873;SDS011;62246;50.938;4.058;2022-12-13T13:04:53;28.08;;;13.85;;
53873;SDS011;62246;50.938;4.058;2022-12-13T13:07:26;26.73;;;13.45;;
53873;SDS011;62246;50.938;4.058;2022-12-13T13:09:56;27.63;;;13.75;;
53873;SDS011;62246;50.938;4.058;2022-12-13T13:12:23;27.05;;;12.43;;
53873;SDS011;62246;50.938;4.058;2022-12-13T13:14:50;26.63;;;13.13;;
53873;SDS011;62246;50.938;4.058;2022-12-13T13:19:53;24.08;;;13.10;;
53873;SDS011;62246;50.938;4.058;2022-12-13T13:24:58;29.40;;;13.93;;
53873;SDS011;62246;50.938;4.058;2022-12-13T13:27:41;27.15;;;13.98;;
53873;SDS011;62246;50.938;4.058;2022-12-13T13:30:19;30.42;;;15.05;;
53873;SDS011;62246;50.938;4.058;2022-12-13T13:32:47;30.30;;;14.27;;
53873;SDS011;62246;50.938;4.058;2022-12-13T13:37:52;28.70;;;13.70;;
53873;SDS011;62246;50.938;4.058;2022-12-13T13:53:54;31.42;;;14.32;;
53873;SDS011;62246;50.938;4.058;2022-12-13T14:07:56;30.48;;;13.95;;
53873;SDS011;62246;50.938;4.058;2022-12-13T14:10:36;30.73;;;14.40;;
53873;SDS011;62246;50.938;4.058;2022-12-13T14:27:24;27.35;;;12.75;;
53873;SDS011;62246;50.938;4.058;2022-12-13T14:30:19;26.17;;;12.55;;
53873;SDS011;62246;50.938;4.058;2022-12-13T14:32:47;26.40;;;12.85;;
53873;SDS011;62246;50.938;4.058;2022-12-13T14:35:22;27.15;;;12.85;;
53873;SDS011;62246;50.938;4.058;2022-12-13T14:38:03;26.20;;;12.52;;
53873;SDS011;62246;50.938;4.058;2022-12-13T14:40:31;30.00;;;13.30;;
53873;SDS011;62246;50.938;4.058;2022-12-13T14:43:01;28.55;;;12.73;;
53873;SDS011;62246;50.938;4.058;2022-12-13T14:45:32;27.63;;;12.55;;
53873;SDS011;62246;50.938;4.058;2022-12-13T14:48:02;26.58;;;13.30;;
53873;SDS011;62246;50.938;4.058;2022-12-13T14:50:31;25.23;;;11.73;;
53873;SDS011;62246;50.938;4.058;2022-12-13T14:52:58;30.88;;;12.82;;
53873;SDS011;62246;50.938;4.058;2022-12-13T14:55:31;30.60;;;13.45;;
53873;SDS011;62246;50.938;4.058;2022-12-13T14:58:03;24.50;;;11.32;;
53873;SDS011;62246;50.938;4.058;2022-12-13T15:00:40;27.45;;;12.80;;
53873;SDS011;62246;50.938;4.058;2022-12-13T15:03:10;29.92;;;12.40;;
53873;SDS011;62246;50.938;4.058;2022-12-13T15:05:45;30.75;;;14.00;;
53873;SDS011;62246;50.938;4.058;2022-12-13T15:08:15;26.35;;;12.07;;
53873;SDS011;62246;50.938;4.058;2022-12-13T15:10:46;31.20;;;13.10;;
53873;SDS011;62246;50.938;4.058;2022-12-13T15:13:35;28.20;;;12.07;;
53873;SDS011;62246;50.938;4.058;2022-12-13T15:16:24;29.98;;;12.30;;
53873;SDS011;62246;50.938;4.058;2022-12-13T15:19:04;26.20;;;11.63;;
53873;SDS011;62246;50.938;4.058;2022-12-13T15:21:31;30.40;;;12.52;;
53873;SDS011;62246;50.938;4.058;2022-12-13T15:23:57;31.77;;;14.45;;
53873;SDS011;62246;50.938;4.058;2022-12-13T15:26:24;28.58;;;12.52;;
53873;SDS011;62246;50.938;4.058;2022-12-13T15:28:55;28.77;;;12.65;;
53873;SDS011;62246;50.938;4.058;2022-12-13T15:31:22;30.75;;;12.40;;
53873;SDS011;62246;50.938;4.058;2022-12-13T15:33:48;34.13;;;13.73;;
53873;SDS011;62246;50.938;4.058;2022-12-13T15:36:24;34.53;;;14.50;;
53873;SDS011;62246;50.938;4.058;2022-12-13T15:41:21;35.15;;;15.30;;
53873;SDS011;62246;50.938;4.058;2022-12-13T15:43:52;36.28;;;14.77;;
53873;SDS011;62246;50.938;4.058;2022-12-13T15:46:38;34.70;;;14.13;;
53873;SDS011;62246;50.938;4.058;2022-12-13T15:49:05;33.75;;;14.52;;
53873;SDS011;62246;50.938;4.058;2022-12-13T15:51:56;33.08;;;13.02;;
53873;SDS011;62246;50.938;4.058;2022-12-13T15:54:25;31.58;;;14.05;;
53873;SDS011;62246;50.938;4.058;2022-12-13T15:59:42;38.25;;;14.75;;
53873;SDS011;62246;50.938;4.058;2022-12-13T16:02:22;33.85;;;15.30;;
53873;SDS011;62246;50.938;4.058;2022-12-13T16:04:48;36.28;;;15.85;;
53873;SDS011;62246;50.938;4.058;2022-12-13T16:07:26;33.30;;;15.15;;
53873;SDS011;62246;50.938;4.058;2022-12-13T16:09:59;33.92;;;14.55;;
53873;SDS011;62246;50.938;4.058;2022-12-13T16:12:28;39.90;;;15.65;;
53873;SDS011;62246;50.938;4.058;2022-12-13T16:17:53;40.97;;;17.02;;
53873;SDS011;62246;50.938;4.058;2022-12-13T16:20:36;47.72;;;19.48;;
53873;SDS011;62246;50.938;4.058;2022-12-13T16:23:01;47.25;;;19.25;;
53873;SDS011;62246;50.938;4.058;2022-12-13T16:25:28;52.17;;;20.40;;
53873;SDS011;62246;50.938;4.058;2022-12-13T16:27:54;54.70;;;21.42;;
53873;SDS011;62246;50.938;4.058;2022-12-13T16:30:51;57.72;;;22.25;;
53873;SDS011;62246;50.938;4.058;2022-12-13T16:33:17;51.08;;;21.90;;
53873;SDS011;62246;50.938;4.058;2022-12-13T16:35:43;58.28;;;21.27;;
53873;SDS011;62246;50.938;4.058;2022-12-13T16:38:09;55.47;;;23.58;;
53873;SDS011;62246;50.938;4.058;2022-12-13T16:40:35;48.17;;;21.48;;
53873;SDS011;62246;50.938;4.058;2022-12-13T16:43:02;56.10;;;23.20;;
53873;SDS011;62246;50.938;4.058;2022-12-13T16:45:30;56.58;;;22.75;;